sensor_id;sensor_type;location;lat;lon;timestamp;temperature;humidity
69938;DHT22;57248;47.320;15.998;2023-05-01T00:01:59;4.68;89.29
69938;DHT22;57248;47.320;15.998;2023-05-01T00:04:33;4.73;89.25
69938;DHT22;57248;47.320;15.998;2023-05-01T00:07:07;4.80;88.47
69938;DHT22;57248;47.320;15.998;2023-05-01T00:09:39;4.91;88.22
69938;DHT22;57248;47.320;15.998;2023-05-01T00:12:26;4.92;88.12
69938;DHT22;57248;47.320;15.998;2023-05-01T00:14:57;4.78;88.81
69938;DHT22;57248;47.320;15.998;2023-05-01T00:17:23;4.80;87.86
69938;DHT22;57248;47.320;15.998;2023-05-01T00:19:55;4.78;87.64
69938;DHT22;57248;47.320;15.998;2023-05-01T00:22:27;4.75;87.50
69938;DHT22;57248;47.320;15.998;2023-05-01T00:24:59;4.68;87.70
69938;DHT22;57248;47.320;15.998;2023-05-01T00:27:31;4.56;87.58
69938;DHT22;57248;47.320;15.998;2023-05-01T00:30:04;4.54;87.33
69938;DHT22;57248;47.320;15.998;2023-05-01T00:32:36;4.50;87.70
69938;DHT22;57248;47.320;15.998;2023-05-01T00:35:03;4.47;89.12
69938;DHT22;57248;47.320;15.998;2023-05-01T00:37:34;4.49;89.51
69938;DHT22;57248;47.320;15.998;2023-05-01T00:40:07;4.58;89.15
69938;DHT22;57248;47.320;15.998;2023-05-01T00:42:39;4.44;89.41
69938;DHT22;57248;47.320;15.998;2023-05-01T00:45:11;4.49;89.07
69938;DHT22;57248;47.320;15.998;2023-05-01T00:47:45;4.58;88.50
69938;DHT22;57248;47.320;15.998;2023-05-01T00:50:18;4.40;88.63
69938;DHT22;57248;47.320;15.998;2023-05-01T00:52:49;4.46;88.43
69938;DHT22;57248;47.320;15.998;2023-05-01T00:55:22;4.47;88.05
69938;DHT22;57248;47.320;15.998;2023-05-01T00:57:54;4.32;88.64
69938;DHT22;57248;47.320;15.998;2023-05-01T01:00:27;4.44;88.82
69938;DHT22;57248;47.320;15.998;2023-05-01T01:02:53;4.40;88.03
69938;DHT22;57248;47.320;15.998;2023-05-01T01:05:27;4.36;88.39
69938;DHT22;57248;47.320;15.998;2023-05-01T01:08:10;4.44;88.66
69938;DHT22;57248;47.320;15.998;2023-05-01T01:13:40;4.56;89.47
69938;DHT22;57248;47.320;15.998;2023-05-01T01:22:01;4.71;89.56
69938;DHT22;57248;47.320;15.998;2023-05-01T01:25:18;4.94;89.67
69938;DHT22;57248;47.320;15.998;2023-05-01T01:28:16;4.88;88.89
69938;DHT22;57248;47.320;15.998;2023-05-01T01:31:09;4.91;89.35
69938;DHT22;57248;47.320;15.998;2023-05-01T01:33:49;5.02;89.75
69938;DHT22;57248;47.320;15.998;2023-05-01T01:36:45;5.08;89.26
69938;DHT22;57248;47.320;15.998;2023-05-01T01:42:18;5.05;89.16
69938;DHT22;57248;47.320;15.998;2023-05-01T01:44:59;5.07;89.88
69938;DHT22;57248;47.320;15.998;2023-05-01T01:47:33;5.05;89.04
69938;DHT22;57248;47.320;15.998;2023-05-01T01:50:06;5.05;89.49
69938;DHT22;57248;47.320;15.998;2023-05-01T01:52:39;5.04;89.95
69938;DHT22;57248;47.320;15.998;2023-05-01T01:55:13;5.01;89.56
69938;DHT22;57248;47.320;15.998;2023-05-01T01:57:47;4.96;89.70
69938;DHT22;57248;47.320;15.998;2023-05-01T02:00:21;4.98;89.77
69938;DHT22;57248;47.320;15.998;2023-05-01T02:02:54;4.94;89.77
69938;DHT22;57248;47.320;15.998;2023-05-01T02:05:29;4.92;89.46
69938;DHT22;57248;47.320;15.998;2023-05-01T02:08:04;4.84;89.87
69938;DHT22;57248;47.320;15.998;2023-05-01T02:10:44;4.83;90.22
69938;DHT22;57248;47.320;15.998;2023-05-01T02:13:18;4.75;91.12
69938;DHT22;57248;47.320;15.998;2023-05-01T02:15:52;4.80;91.31
69938;DHT22;57248;47.320;15.998;2023-05-01T02:18:28;4.84;90.85
69938;DHT22;57248;47.320;15.998;2023-05-01T02:21:02;4.92;90.30
69938;DHT22;57248;47.320;15.998;2023-05-01T02:23:36;4.81;89.83
69938;DHT22;57248;47.320;15.998;2023-05-01T02:26:02;4.78;90.32
69938;DHT22;57248;47.320;15.998;2023-05-01T02:28:35;4.70;90.83
69938;DHT22;57248;47.320;15.998;2023-05-01T02:31:12;4.56;89.84
69938;DHT22;57248;47.320;15.998;2023-05-01T02:33:43;4.58;90.23
69938;DHT22;57248;47.320;15.998;2023-05-01T02:36:16;4.61;90.51
69938;DHT22;57248;47.320;15.998;2023-05-01T02:38:48;4.67;90.19
69938;DHT22;57248;47.320;15.998;2023-05-01T02:41:23;4.64;90.94
69938;DHT22;57248;47.320;15.998;2023-05-01T02:44:00;4.67;90.86
69938;DHT22;57248;47.320;15.998;2023-05-01T02:46:35;4.75;91.27
69938;DHT22;57248;47.320;15.998;2023-05-01T02:49:08;4.74;91.48
69938;DHT22;57248;47.320;15.998;2023-05-01T02:51:41;4.81;91.78
69938;DHT22;57248;47.320;15.998;2023-05-01T02:54:14;4.77;91.67
69938;DHT22;57248;47.320;15.998;2023-05-01T02:56:47;4.84;91.48
69938;DHT22;57248;47.320;15.998;2023-05-01T02:59:18;4.68;92.91
69938;DHT22;57248;47.320;15.998;2023-05-01T03:01:50;4.70;92.96
69938;DHT22;57248;47.320;15.998;2023-05-01T03:04:22;4.73;93.14
69938;DHT22;57248;47.320;15.998;2023-05-01T03:06:54;4.84;93.21
69938;DHT22;57248;47.320;15.998;2023-05-01T03:09:26;4.94;91.96
69938;DHT22;57248;47.320;15.998;2023-05-01T03:12:12;5.01;91.64
69938;DHT22;57248;47.320;15.998;2023-05-01T03:14:45;5.07;91.62
69938;DHT22;57248;47.320;15.998;2023-05-01T03:17:16;5.08;91.46
69938;DHT22;57248;47.320;15.998;2023-05-01T03:19:49;5.12;91.34
69938;DHT22;57248;47.320;15.998;2023-05-01T03:22:14;5.05;91.18
69938;DHT22;57248;47.320;15.998;2023-05-01T03:24:46;4.98;92.37
69938;DHT22;57248;47.320;15.998;2023-05-01T03:27:18;5.04;92.92
69938;DHT22;57248;47.320;15.998;2023-05-01T03:29:53;5.15;91.65
69938;DHT22;57248;47.320;15.998;2023-05-01T03:32:25;5.08;92.67
69938;DHT22;57248;47.320;15.998;2023-05-01T03:35:00;5.23;92.24
69938;DHT22;57248;47.320;15.998;2023-05-01T03:37:32;5.29;91.92
69938;DHT22;57248;47.320;15.998;2023-05-01T03:40:05;5.35;91.47
69938;DHT22;57248;47.320;15.998;2023-05-01T03:42:56;5.46;91.19
69938;DHT22;57248;47.320;15.998;2023-05-01T03:45:29;5.36;91.26
69938;DHT22;57248;47.320;15.998;2023-05-01T03:48:02;5.25;92.08
69938;DHT22;57248;47.320;15.998;2023-05-01T03:50:33;5.38;91.37
69938;DHT22;57248;47.320;15.998;2023-05-01T03:53:05;5.46;91.20
69938;DHT22;57248;47.320;15.998;2023-05-01T03:55:38;5.52;91.09
69938;DHT22;57248;47.320;15.998;2023-05-01T03:58:13;5.60;91.35
69938;DHT22;57248;47.320;15.998;2023-05-01T04:00:44;5.66;90.81
69938;DHT22;57248;47.320;15.998;2023-05-01T04:03:10;5.74;90.75
69938;DHT22;57248;47.320;15.998;2023-05-01T04:05:42;5.83;90.61
69938;DHT22;57248;47.320;15.998;2023-05-01T04:08:16;5.90;91.58
69938;DHT22;57248;47.320;15.998;2023-05-01T04:10:48;6.00;91.28
69938;DHT22;57248;47.320;15.998;2023-05-01T04:13:26;6.05;91.34
69938;DHT22;57248;47.320;15.998;2023-05-01T04:16:00;6.21;90.21
69938;DHT22;57248;47.320;15.998;2023-05-01T04:18:34;6.36;89.31
69938;DHT22;57248;47.320;15.998;2023-05-01T04:21:06;6.49;89.18
69938;DHT22;57248;47.320;15.998;2023-05-01T04:23:39;6.59;89.14
69938;DHT22;57248;47.320;15.998;2023-05-01T04:26:10;6.66;89.44
69938;DHT22;57248;47.320;15.998;2023-05-01T04:28:43;6.77;89.53
69938;DHT22;57248;47.320;15.998;2023-05-01T04:31:20;6.90;89.25
69938;DHT22;57248;47.320;15.998;2023-05-01T04:33:51;7.11;88.60
69938;DHT22;57248;47.320;15.998;2023-05-01T04:36:24;7.25;87.69
69938;DHT22;57248;47.320;15.998;2023-05-01T04:38:56;7.41;87.94
69938;DHT22;57248;47.320;15.998;2023-05-01T04:41:29;7.56;87.68
69938;DHT22;57248;47.320;15.998;2023-05-01T04:44:02;7.65;87.77
69938;DHT22;57248;47.320;15.998;2023-05-01T04:46:36;7.72;87.38
69938;DHT22;57248;47.320;15.998;2023-05-01T04:49:02;7.87;86.97
69938;DHT22;57248;47.320;15.998;2023-05-01T04:51:34;8.02;86.72
69938;DHT22;57248;47.320;15.998;2023-05-01T04:54:09;8.19;87.12
69938;DHT22;57248;47.320;15.998;2023-05-01T04:56:42;8.22;86.70
69938;DHT22;57248;47.320;15.998;2023-05-01T04:59:14;8.36;87.06
69938;DHT22;57248;47.320;15.998;2023-05-01T05:01:46;8.45;86.27
69938;DHT22;57248;47.320;15.998;2023-05-01T05:04:18;8.53;86.27
69938;DHT22;57248;47.320;15.998;2023-05-01T05:06:51;8.68;85.73
69938;DHT22;57248;47.320;15.998;2023-05-01T05:09:32;8.86;84.99
69938;DHT22;57248;47.320;15.998;2023-05-01T05:12:11;8.92;84.81
69938;DHT22;57248;47.320;15.998;2023-05-01T05:14:45;9.13;83.10
69938;DHT22;57248;47.320;15.998;2023-05-01T05:17:20;9.29;82.65
69938;DHT22;57248;47.320;15.998;2023-05-01T05:19:52;9.16;81.33
69938;DHT22;57248;47.320;15.998;2023-05-01T05:22:24;9.73;86.15
69938;DHT22;57248;47.320;15.998;2023-05-01T05:25:26;9.43;79.80
69938;DHT22;57248;47.320;15.998;2023-05-01T05:27:58;9.61;81.17
69938;DHT22;57248;47.320;15.998;2023-05-01T05:30:31;10.18;81.64
69938;DHT22;57248;47.320;15.998;2023-05-01T05:33:06;10.64;80.46
69938;DHT22;57248;47.320;15.998;2023-05-01T05:35:40;11.01;78.84
69938;DHT22;57248;47.320;15.998;2023-05-01T05:38:12;11.03;77.36
69938;DHT22;57248;47.320;15.998;2023-05-01T05:40:48;11.24;75.54
69938;DHT22;57248;47.320;15.998;2023-05-01T05:43:21;11.57;75.52
69938;DHT22;57248;47.320;15.998;2023-05-01T05:45:58;11.34;74.34
69938;DHT22;57248;47.320;15.998;2023-05-01T05:48:32;11.42;75.48
69938;DHT22;57248;47.320;15.998;2023-05-01T05:51:06;11.42;76.92
69938;DHT22;57248;47.320;15.998;2023-05-01T05:53:38;11.73;75.90
69938;DHT22;57248;47.320;15.998;2023-05-01T05:56:11;11.42;76.26
69938;DHT22;57248;47.320;15.998;2023-05-01T05:58:45;11.52;74.36
69938;DHT22;57248;47.320;15.998;2023-05-01T06:01:19;11.59;74.80
69938;DHT22;57248;47.320;15.998;2023-05-01T06:03:51;11.43;75.33
69938;DHT22;57248;47.320;15.998;2023-05-01T06:06:26;11.12;74.92
69938;DHT22;57248;47.320;15.998;2023-05-01T06:08:51;10.96;75.54
69938;DHT22;57248;47.320;15.998;2023-05-01T06:11:24;10.83;76.56
69938;DHT22;57248;47.320;15.998;2023-05-01T06:14:03;10.90;77.12
69938;DHT22;57248;47.320;15.998;2023-05-01T06:16:35;11.08;77.47
69938;DHT22;57248;47.320;15.998;2023-05-01T06:19:08;11.14;76.76
69938;DHT22;57248;47.320;15.998;2023-05-01T06:21:37;11.20;77.56
69938;DHT22;57248;47.320;15.998;2023-05-01T06:24:09;11.75;76.85
69938;DHT22;57248;47.320;15.998;2023-05-01T06:26:47;12.38;75.38
69938;DHT22;57248;47.320;15.998;2023-05-01T06:29:19;12.29;73.28
69938;DHT22;57248;47.320;15.998;2023-05-01T06:31:51;12.03;73.29
69938;DHT22;57248;47.320;15.998;2023-05-01T06:34:23;11.87;73.82
69938;DHT22;57248;47.320;15.998;2023-05-01T06:36:56;11.73;74.42
69938;DHT22;57248;47.320;15.998;2023-05-01T06:39:28;11.45;77.10
69938;DHT22;57248;47.320;15.998;2023-05-01T06:42:01;11.55;77.54
69938;DHT22;57248;47.320;15.998;2023-05-01T06:44:38;11.42;77.43
69938;DHT22;57248;47.320;15.998;2023-05-01T06:47:11;11.32;77.09
69938;DHT22;57248;47.320;15.998;2023-05-01T06:49:43;11.59;76.26
69938;DHT22;57248;47.320;15.998;2023-05-01T06:52:16;11.94;75.76
69938;DHT22;57248;47.320;15.998;2023-05-01T06:54:48;12.23;74.73
69938;DHT22;57248;47.320;15.998;2023-05-01T06:57:20;11.99;71.86
69938;DHT22;57248;47.320;15.998;2023-05-01T06:59:52;12.42;69.74
69938;DHT22;57248;47.320;15.998;2023-05-01T07:02:18;12.72;68.44
69938;DHT22;57248;47.320;15.998;2023-05-01T07:04:50;13.36;68.59
69938;DHT22;57248;47.320;15.998;2023-05-01T07:07:22;13.82;66.29
69938;DHT22;57248;47.320;15.998;2023-05-01T07:09:54;14.19;63.96
69938;DHT22;57248;47.320;15.998;2023-05-01T07:12:32;14.69;63.33
69938;DHT22;57248;47.320;15.998;2023-05-01T07:15:05;15.08;62.50
69938;DHT22;57248;47.320;15.998;2023-05-01T07:17:38;15.16;61.13
69938;DHT22;57248;47.320;15.998;2023-05-01T07:20:10;15.41;60.10
69938;DHT22;57248;47.320;15.998;2023-05-01T07:22:43;16.74;56.10
69938;DHT22;57248;47.320;15.998;2023-05-01T07:25:15;18.01;52.01
69938;DHT22;57248;47.320;15.998;2023-05-01T07:27:47;18.92;48.57
69938;DHT22;57248;47.320;15.998;2023-05-01T07:30:19;19.58;48.89
69938;DHT22;57248;47.320;15.998;2023-05-01T07:32:51;18.92;49.14
69938;DHT22;57248;47.320;15.998;2023-05-01T07:35:23;19.18;49.35
69938;DHT22;57248;47.320;15.998;2023-05-01T07:37:55;17.78;50.51
69938;DHT22;57248;47.320;15.998;2023-05-01T07:40:27;18.18;50.27
69938;DHT22;57248;47.320;15.998;2023-05-01T07:42:59;18.35;50.74
69938;DHT22;57248;47.320;15.998;2023-05-01T07:45:32;16.40;52.81
69938;DHT22;57248;47.320;15.998;2023-05-01T07:48:04;16.88;54.07
69938;DHT22;57248;47.320;15.998;2023-05-01T07:50:37;17.29;52.92
69938;DHT22;57248;47.320;15.998;2023-05-01T07:53:10;17.14;52.18
69938;DHT22;57248;47.320;15.998;2023-05-01T07:55:42;18.19;51.78
69938;DHT22;57248;47.320;15.998;2023-05-01T07:58:14;18.16;51.28
69938;DHT22;57248;47.320;15.998;2023-05-01T08:00:48;16.57;53.25
69938;DHT22;57248;47.320;15.998;2023-05-01T08:03:20;17.60;51.77
69938;DHT22;57248;47.320;15.998;2023-05-01T08:05:52;17.81;51.38
69938;DHT22;57248;47.320;15.998;2023-05-01T08:08:25;19.30;49.67
69938;DHT22;57248;47.320;15.998;2023-05-01T08:10:57;19.51;47.23
69938;DHT22;57248;47.320;15.998;2023-05-01T08:13:37;20.47;45.08
69938;DHT22;57248;47.320;15.998;2023-05-01T08:16:09;21.25;42.90
69938;DHT22;57248;47.320;15.998;2023-05-01T08:18:41;19.45;47.28
69938;DHT22;57248;47.320;15.998;2023-05-01T08:21:07;20.77;45.12
69938;DHT22;57248;47.320;15.998;2023-05-01T08:23:39;21.83;43.55
69938;DHT22;57248;47.320;15.998;2023-05-01T08:26:13;22.00;41.92
69938;DHT22;57248;47.320;15.998;2023-05-01T08:28:45;23.36;41.17
69938;DHT22;57248;47.320;15.998;2023-05-01T08:31:18;22.34;42.04
69938;DHT22;57248;47.320;15.998;2023-05-01T08:33:50;21.15;45.18
69938;DHT22;57248;47.320;15.998;2023-05-01T08:36:23;19.31;47.78
69938;DHT22;57248;47.320;15.998;2023-05-01T08:38:55;20.26;47.94
69938;DHT22;57248;47.320;15.998;2023-05-01T08:41:28;19.87;47.14
69938;DHT22;57248;47.320;15.998;2023-05-01T08:44:05;19.51;48.37
69938;DHT22;57248;47.320;15.998;2023-05-01T08:46:43;17.35;51.53
69938;DHT22;57248;47.320;15.998;2023-05-01T08:49:17;18.55;49.30
69938;DHT22;57248;47.320;15.998;2023-05-01T08:51:50;20.45;46.34
69938;DHT22;57248;47.320;15.998;2023-05-01T08:54:26;18.65;49.46
69938;DHT22;57248;47.320;15.998;2023-05-01T08:57:01;18.16;49.52
69938;DHT22;57248;47.320;15.998;2023-05-01T08:59:39;21.61;45.22
69938;DHT22;57248;47.320;15.998;2023-05-01T09:02:26;24.20;40.78
69938;DHT22;57248;47.320;15.998;2023-05-01T09:04:59;23.89;40.72
69938;DHT22;57248;47.320;15.998;2023-05-01T09:07:39;22.02;43.37
69938;DHT22;57248;47.320;15.998;2023-05-01T09:10:18;19.72;47.50
69938;DHT22;57248;47.320;15.998;2023-05-01T09:13:00;21.50;45.23
69938;DHT22;57248;47.320;15.998;2023-05-01T09:15:41;20.44;45.74
69938;DHT22;57248;47.320;15.998;2023-05-01T09:18:13;20.34;47.04
69938;DHT22;57248;47.320;15.998;2023-05-01T09:20:45;21.11;45.75
69938;DHT22;57248;47.320;15.998;2023-05-01T09:23:17;21.94;44.28
69938;DHT22;57248;47.320;15.998;2023-05-01T09:25:44;24.32;41.53
69938;DHT22;57248;47.320;15.998;2023-05-01T09:28:18;22.02;44.52
69938;DHT22;57248;47.320;15.998;2023-05-01T09:30:50;21.60;43.82
69938;DHT22;57248;47.320;15.998;2023-05-01T09:33:23;21.32;45.53
69938;DHT22;57248;47.320;15.998;2023-05-01T09:35:56;21.69;44.48
69938;DHT22;57248;47.320;15.998;2023-05-01T09:38:30;23.17;42.20
69938;DHT22;57248;47.320;15.998;2023-05-01T09:41:03;24.87;40.76
69938;DHT22;57248;47.320;15.998;2023-05-01T09:43:36;24.76;38.48
69938;DHT22;57248;47.320;15.998;2023-05-01T09:46:07;23.71;40.20
69938;DHT22;57248;47.320;15.998;2023-05-01T09:48:40;23.44;40.55
69938;DHT22;57248;47.320;15.998;2023-05-01T09:51:27;20.98;45.34
69938;DHT22;57248;47.320;15.998;2023-05-01T09:54:03;24.44;40.40
69938;DHT22;57248;47.320;15.998;2023-05-01T09:56:45;27.20;34.84
69938;DHT22;57248;47.320;15.998;2023-05-01T09:59:19;24.05;40.10
69938;DHT22;57248;47.320;15.998;2023-05-01T10:01:51;23.90;40.30
69938;DHT22;57248;47.320;15.998;2023-05-01T10:04:29;21.36;43.96
69938;DHT22;57248;47.320;15.998;2023-05-01T10:07:12;22.12;43.65
69938;DHT22;57248;47.320;15.998;2023-05-01T10:09:45;23.50;41.73
69938;DHT22;57248;47.320;15.998;2023-05-01T10:12:31;26.85;37.36
69938;DHT22;57248;47.320;15.998;2023-05-01T10:15:04;23.36;40.51
69938;DHT22;57248;47.320;15.998;2023-05-01T10:17:39;20.99;45.57
69938;DHT22;57248;47.320;15.998;2023-05-01T10:20:11;21.15;45.26
69938;DHT22;57248;47.320;15.998;2023-05-01T10:22:44;20.16;46.74
69938;DHT22;57248;47.320;15.998;2023-05-01T10:25:18;18.89;49.87
69938;DHT22;57248;47.320;15.998;2023-05-01T10:27:51;21.97;44.86
69938;DHT22;57248;47.320;15.998;2023-05-01T10:30:28;24.61;41.27
69938;DHT22;57248;47.320;15.998;2023-05-01T10:33:02;24.01;39.14
69938;DHT22;57248;47.320;15.998;2023-05-01T10:35:36;24.05;41.64
69938;DHT22;57248;47.320;15.998;2023-05-01T10:38:18;22.12;43.79
69938;DHT22;57248;47.320;15.998;2023-05-01T10:40:54;21.46;45.37
69938;DHT22;57248;47.320;15.998;2023-05-01T10:43:28;21.79;44.37
69938;DHT22;57248;47.320;15.998;2023-05-01T10:51:22;21.02;46.37
69938;DHT22;57248;47.320;15.998;2023-05-01T10:56:45;22.77;44.45
69938;DHT22;57248;47.320;15.998;2023-05-01T10:59:17;23.10;42.07
69938;DHT22;57248;47.320;15.998;2023-05-01T11:01:49;20.75;44.80
69938;DHT22;57248;47.320;15.998;2023-05-01T11:09:46;20.26;46.75
69938;DHT22;57248;47.320;15.998;2023-05-01T11:15:31;20.98;44.18
69938;DHT22;57248;47.320;15.998;2023-05-01T11:18:05;21.83;43.17
69938;DHT22;57248;47.320;15.998;2023-05-01T11:20:45;21.46;43.93
69938;DHT22;57248;47.320;15.998;2023-05-01T11:23:20;21.05;44.72
69938;DHT22;57248;47.320;15.998;2023-05-01T11:26:00;20.40;46.40
69938;DHT22;57248;47.320;15.998;2023-05-01T11:28:33;21.74;43.68
69938;DHT22;57248;47.320;15.998;2023-05-01T11:31:05;20.94;46.23
69938;DHT22;57248;47.320;15.998;2023-05-01T11:33:37;21.42;44.55
69938;DHT22;57248;47.320;15.998;2023-05-01T11:36:10;20.51;45.43
69938;DHT22;57248;47.320;15.998;2023-05-01T11:38:35;20.75;45.57
69938;DHT22;57248;47.320;15.998;2023-05-01T11:41:08;19.89;46.93
69938;DHT22;57248;47.320;15.998;2023-05-01T11:43:55;21.45;44.13
69938;DHT22;57248;47.320;15.998;2023-05-01T11:46:30;24.44;39.48
69938;DHT22;57248;47.320;15.998;2023-05-01T11:49:02;21.93;43.06
69938;DHT22;57248;47.320;15.998;2023-05-01T11:51:35;20.91;46.42
69938;DHT22;57248;47.320;15.998;2023-05-01T11:54:09;20.40;45.32
69938;DHT22;57248;47.320;15.998;2023-05-01T11:56:41;19.45;46.74
69938;DHT22;57248;47.320;15.998;2023-05-01T11:59:15;20.47;45.90
69938;DHT22;57248;47.320;15.998;2023-05-01T12:01:47;21.59;44.69
69938;DHT22;57248;47.320;15.998;2023-05-01T12:04:24;22.86;43.41
69938;DHT22;57248;47.320;15.998;2023-05-01T12:06:59;22.38;41.98
69938;DHT22;57248;47.320;15.998;2023-05-01T12:09:31;21.15;44.41
69938;DHT22;57248;47.320;15.998;2023-05-01T12:12:04;22.24;44.49
69938;DHT22;57248;47.320;15.998;2023-05-01T12:14:43;22.72;42.31
69938;DHT22;57248;47.320;15.998;2023-05-01T12:17:16;21.50;43.52
69938;DHT22;57248;47.320;15.998;2023-05-01T12:19:48;22.00;43.07
69938;DHT22;57248;47.320;15.998;2023-05-01T12:22:20;20.92;45.17
69938;DHT22;57248;47.320;15.998;2023-05-01T12:24:52;20.72;45.58
69938;DHT22;57248;47.320;15.998;2023-05-01T12:27:25;20.32;46.28
69938;DHT22;57248;47.320;15.998;2023-05-01T12:29:57;21.54;45.01
69938;DHT22;57248;47.320;15.998;2023-05-01T12:32:31;21.32;44.06
69938;DHT22;57248;47.320;15.998;2023-05-01T12:35:14;20.60;45.44
69938;DHT22;57248;47.320;15.998;2023-05-01T12:37:46;20.60;46.26
69938;DHT22;57248;47.320;15.998;2023-05-01T12:40:18;21.54;45.53
69938;DHT22;57248;47.320;15.998;2023-05-01T12:42:56;23.07;41.95
69938;DHT22;57248;47.320;15.998;2023-05-01T12:45:37;25.92;36.73
69938;DHT22;57248;47.320;15.998;2023-05-01T12:48:13;24.30;39.21
69938;DHT22;57248;47.320;15.998;2023-05-01T12:50:45;25.69;36.77
69938;DHT22;57248;47.320;15.998;2023-05-01T12:53:17;26.25;35.69
69938;DHT22;57248;47.320;15.998;2023-05-01T12:55:51;27.39;34.85
69938;DHT22;57248;47.320;15.998;2023-05-01T12:58:36;26.37;36.03
69938;DHT22;57248;47.320;15.998;2023-05-01T13:01:11;28.74;35.20
69938;DHT22;57248;47.320;15.998;2023-05-01T13:03:43;27.42;34.65
69938;DHT22;57248;47.320;15.998;2023-05-01T13:06:16;25.65;36.57
69938;DHT22;57248;47.320;15.998;2023-05-01T13:08:49;28.50;32.82
69938;DHT22;57248;47.320;15.998;2023-05-01T13:11:29;29.41;31.50
69938;DHT22;57248;47.320;15.998;2023-05-01T13:14:08;26.40;36.19
69938;DHT22;57248;47.320;15.998;2023-05-01T13:16:44;22.62;42.03
69938;DHT22;57248;47.320;15.998;2023-05-01T13:19:26;26.35;36.31
69938;DHT22;57248;47.320;15.998;2023-05-01T13:22:03;26.59;35.26
69938;DHT22;57248;47.320;15.998;2023-05-01T13:24:37;27.20;34.64
69938;DHT22;57248;47.320;15.998;2023-05-01T13:27:10;25.59;36.98
69938;DHT22;57248;47.320;15.998;2023-05-01T13:29:53;26.18;35.82
69938;DHT22;57248;47.320;15.998;2023-05-01T13:32:30;23.37;41.14
69938;DHT22;57248;47.320;15.998;2023-05-01T13:35:02;20.92;44.38
69938;DHT22;57248;47.320;15.998;2023-05-01T13:37:38;22.70;41.38
69938;DHT22;57248;47.320;15.998;2023-05-01T13:40:13;22.52;42.17
69938;DHT22;57248;47.320;15.998;2023-05-01T13:42:49;22.76;42.32
69938;DHT22;57248;47.320;15.998;2023-05-01T13:45:23;23.09;41.57
69938;DHT22;57248;47.320;15.998;2023-05-01T13:47:56;21.56;43.76
69938;DHT22;57248;47.320;15.998;2023-05-01T13:50:28;22.17;43.18
69938;DHT22;57248;47.320;15.998;2023-05-01T13:53:01;23.79;40.59
69938;DHT22;57248;47.320;15.998;2023-05-01T13:55:33;25.59;36.53
69938;DHT22;57248;47.320;15.998;2023-05-01T13:57:59;21.28;43.92
69938;DHT22;57248;47.320;15.998;2023-05-01T14:00:32;22.77;42.11
69938;DHT22;57248;47.320;15.998;2023-05-01T14:03:04;21.50;44.84
69938;DHT22;57248;47.320;15.998;2023-05-01T14:05:38;21.52;43.62
69938;DHT22;57248;47.320;15.998;2023-05-01T14:08:13;21.09;44.75
69938;DHT22;57248;47.320;15.998;2023-05-01T14:10:46;20.71;45.98
69938;DHT22;57248;47.320;15.998;2023-05-01T14:13:34;20.78;45.75
69938;DHT22;57248;47.320;15.998;2023-05-01T14:16:08;20.22;46.02
69938;DHT22;57248;47.320;15.998;2023-05-01T14:18:45;21.52;44.41
69938;DHT22;57248;47.320;15.998;2023-05-01T14:21:14;22.17;43.53
69938;DHT22;57248;47.320;15.998;2023-05-01T14:23:46;21.59;44.84
69938;DHT22;57248;47.320;15.998;2023-05-01T14:26:20;21.40;45.02
69938;DHT22;57248;47.320;15.998;2023-05-01T14:28:48;21.69;45.40
69938;DHT22;57248;47.320;15.998;2023-05-01T14:31:26;21.11;46.18
69938;DHT22;57248;47.320;15.998;2023-05-01T14:34:01;21.23;47.73
69938;DHT22;57248;47.320;15.998;2023-05-01T14:36:33;20.99;45.37
69938;DHT22;57248;47.320;15.998;2023-05-01T14:39:05;20.55;47.83
69938;DHT22;57248;47.320;15.998;2023-05-01T14:41:40;20.19;48.60
69938;DHT22;57248;47.320;15.998;2023-05-01T14:44:17;20.81;46.58
69938;DHT22;57248;47.320;15.998;2023-05-01T14:46:49;20.71;47.12
69938;DHT22;57248;47.320;15.998;2023-05-01T14:49:24;22.01;45.01
69938;DHT22;57248;47.320;15.998;2023-05-01T14:51:57;21.49;45.48
69938;DHT22;57248;47.320;15.998;2023-05-01T14:54:31;21.53;44.45
69938;DHT22;57248;47.320;15.998;2023-05-01T14:57:06;20.51;46.15
69938;DHT22;57248;47.320;15.998;2023-05-01T14:59:39;20.75;46.27
69938;DHT22;57248;47.320;15.998;2023-05-01T15:02:13;20.88;45.61
69938;DHT22;57248;47.320;15.998;2023-05-01T15:04:45;22.04;43.37
69938;DHT22;57248;47.320;15.998;2023-05-01T15:07:17;21.96;42.89
69938;DHT22;57248;47.320;15.998;2023-05-01T15:09:49;22.10;42.99
69938;DHT22;57248;47.320;15.998;2023-05-01T15:12:21;21.26;44.94
69938;DHT22;57248;47.320;15.998;2023-05-01T15:15:00;20.65;45.89
69938;DHT22;57248;47.320;15.998;2023-05-01T15:17:32;21.15;45.66
69938;DHT22;57248;47.320;15.998;2023-05-01T15:20:05;20.53;47.01
69938;DHT22;57248;47.320;15.998;2023-05-01T15:22:38;20.39;47.33
69938;DHT22;57248;47.320;15.998;2023-05-01T15:25:10;20.64;47.31
69938;DHT22;57248;47.320;15.998;2023-05-01T15:27:42;19.93;47.91
69938;DHT22;57248;47.320;15.998;2023-05-01T15:30:14;19.65;48.85
69938;DHT22;57248;47.320;15.998;2023-05-01T15:32:39;19.75;48.74
69938;DHT22;57248;47.320;15.998;2023-05-01T15:35:12;19.95;47.35
69938;DHT22;57248;47.320;15.998;2023-05-01T15:37:44;21.43;44.99
69938;DHT22;57248;47.320;15.998;2023-05-01T15:40:17;20.51;45.93
69938;DHT22;57248;47.320;15.998;2023-05-01T15:42:49;20.57;46.47
69938;DHT22;57248;47.320;15.998;2023-05-01T15:45:23;20.90;46.20
69938;DHT22;57248;47.320;15.998;2023-05-01T15:47:55;19.96;47.56
69938;DHT22;57248;47.320;15.998;2023-05-01T15:50:28;20.17;47.02
69938;DHT22;57248;47.320;15.998;2023-05-01T15:53:00;20.26;47.26
69938;DHT22;57248;47.320;15.998;2023-05-01T15:55:32;19.76;48.14
69938;DHT22;57248;47.320;15.998;2023-05-01T15:58:06;19.95;48.94
69938;DHT22;57248;47.320;15.998;2023-05-01T16:00:38;19.58;48.72
69938;DHT22;57248;47.320;15.998;2023-05-01T16:03:10;19.64;49.24
69938;DHT22;57248;47.320;15.998;2023-05-01T16:05:44;20.13;48.03
69938;DHT22;57248;47.320;15.998;2023-05-01T16:08:18;19.82;47.80
69938;DHT22;57248;47.320;15.998;2023-05-01T16:10:58;18.99;50.19
69938;DHT22;57248;47.320;15.998;2023-05-01T16:13:30;19.61;49.28
69938;DHT22;57248;47.320;15.998;2023-05-01T16:16:03;19.39;49.27
69938;DHT22;57248;47.320;15.998;2023-05-01T16:18:41;19.06;49.98
69938;DHT22;57248;47.320;15.998;2023-05-01T16:21:14;19.24;49.76
69938;DHT22;57248;47.320;15.998;2023-05-01T16:23:50;19.31;50.04
69938;DHT22;57248;47.320;15.998;2023-05-01T16:26:25;19.38;50.57
69938;DHT22;57248;47.320;15.998;2023-05-01T16:29:00;19.30;50.20
69938;DHT22;57248;47.320;15.998;2023-05-01T16:31:38;18.99;50.34